Terminal Aerodrome Forecast
Issued by NWS

Home | Current Version | Previous Version | Graphics & Text | Print | Product List | Glossary On
Versions: 1 2 3 4 5 6 7 8 9 10 11 12 13 14 15 16 17 18 19 20 21
742
FTUS43 KBIS 141511 AAA
TAFMOT
TAF AMD
KMOT 141511Z 1415/1512 32013G18KT P6SM -SHSN BKN025 OVC035
      TEMPO 1415/1419 BKN035
     FM141900 31014G22KT P6SM BKN025 OVC035
     FM142200 29010KT P6SM SCT020 OVC035
     FM150400 24007KT P6SM BKN035 BKN140=

USA.gov is the U.S. government's official web portal to all federal, state and local government web resources and services.